Time;durP1;ratioP1;P1;durP2;ratioP2;P2;SDS_P1;SDS_P2;PMS_P1;PMS_P2;Temp;Humidity;BMP_temperature;BMP_pressure;BME280_temperature;BME280_humidity;BME280_pressure;Samples;Min_cycle;Max_cycle;Signal;HPM_P1;HPM_P2
2021/06/12 00:00:29;;;;;;;20.95;9.15;;;;;;;;;;5002783;28;20080;-68
2021/06/12 00:02:56;;;;;;;24.88;9.77;;;;;;;;;;4994031;28;20042;-68
2021/06/12 00:05:23;;;;;;;21.70;10.68;;;;;;;;;;4990657;28;20062;-68
2021/06/12 00:07:49;;;;;;;17.77;9.32;;;;;;;;;;5004253;28;20022;-67
2021/06/12 00:10:17;;;;;;;24.23;8.95;;;;;;;;;;4995832;28;20018;-68
2021/06/12 00:12:43;;;;;;;27.52;9.35;;;;;;;;;;4991284;28;20117;-67
2021/06/12 00:15:10;;;;;;;21.88;7.57;;;;;;;;;;5006050;28;20030;-67
2021/06/12 00:17:37;;;;;;;20.83;8.20;;;;;;;;;;5000647;28;20091;-68
2021/06/12 00:20:05;;;;;;;24.25;9.77;;;;;;;;;;4984519;28;20043;-67
2021/06/12 00:22:31;;;;;;;19.67;9.55;;;;;;;;;;4987189;28;20022;-67
2021/06/12 00:24:57;;;;;;;22.42;10.35;;;;;;;;;;4987910;28;20018;-67
2021/06/12 00:27:23;;;;;;;26.25;10.30;;;;;;;;;;4987346;28;20049;-68
2021/06/12 00:29:49;;;;;;;24.30;10.75;;;;;;;;;;4993239;28;20084;-67
2021/06/12 00:32:15;;;;;;;25.70;10.18;;;;;;;;;;4995036;28;20087;-67
2021/06/12 00:34:41;;;;;;;22.60;9.70;;;;;;;;;;4988989;28;20558;-68
2021/06/12 00:37:07;;;;;;;21.73;10.13;;;;;;;;;;4987323;28;20057;-67
2021/06/12 00:39:33;;;;;;;22.15;10.65;;;;;;;;;;4982985;28;20022;-68
2021/06/12 00:42:00;;;;;;;25.60;11.75;;;;;;;;;;4990965;28;20026;-68
2021/06/12 00:44:26;;;;;;;28.13;11.63;;;;;;;;;;5001410;28;20029;-69
2021/06/12 00:46:52;;;;;;;25.20;11.57;;;;;;;;;;4991027;28;20026;-68
2021/06/12 00:49:19;;;;;;;30.00;12.38;;;;;;;;;;4991110;28;20054;-68
2021/06/12 00:51:46;;;;;;;25.38;11.10;;;;;;;;;;4992039;28;20027;-68
2021/06/12 00:54:12;;;;;;;35.22;12.90;;;;;;;;;;4992233;28;20042;-68
2021/06/12 00:56:38;;;;;;;33.80;13.10;;;;;;;;;;4995711;28;20033;-67
2021/06/12 00:59:04;;;;;;;31.90;13.48;;;;;;;;;;4997767;28;20034;-67
2021/06/12 01:01:30;;;;;;;35.78;14.60;;;;;;;;;;4996308;28;20571;-67
2021/06/12 01:03:58;;;;;;;31.25;13.98;;;;;;;;;;4996715;28;20524;-67
2021/06/12 01:06:24;;;;;;;24.20;12.68;;;;;;;;;;4994934;28;20515;-68
2021/06/12 01:08:50;;;;;;;21.00;12.20;;;;;;;;;;5005409;28;20493;-68
2021/06/12 01:11:17;;;;;;;24.15;12.60;;;;;;;;;;4994157;28;20122;-68
2021/06/12 01:14:02;;;;;;;24.15;11.93;;;;;;;;;;4987725;28;20049;-67
2021/06/12 01:16:47;;;;;;;27.33;14.82;;;;;;;;;;4983273;28;20101;-66
2021/06/12 01:19:19;;;;;;;25.42;13.57;;;;;;;;;;4976823;28;20037;-69
2021/06/12 01:21:46;;;;;;;22.98;13.55;;;;;;;;;;4989759;28;20038;-68
2021/06/12 01:24:20;;;;;;;24.42;13.63;;;;;;;;;;4993448;28;20083;-68
2021/06/12 01:26:58;;;;;;;34.20;16.30;;;;;;;;;;4993642;28;20519;-67
2021/06/12 01:29:28;;;;;;;30.05;16.27;;;;;;;;;;5003247;28;20401;-68
2021/06/12 01:31:54;;;;;;;28.08;14.43;;;;;;;;;;4989349;28;20054;-69
2021/06/12 01:34:21;;;;;;;28.58;14.90;;;;;;;;;;4994854;28;20034;-67
2021/06/12 01:36:47;;;;;;;28.70;14.63;;;;;;;;;;4993118;28;20479;-68
2021/06/12 01:39:14;;;;;;;23.80;12.68;;;;;;;;;;4990461;28;20031;-67
2021/06/12 01:41:41;;;;;;;23.55;12.20;;;;;;;;;;5001893;28;20515;-68
2021/06/12 01:44:08;;;;;;;22.23;11.23;;;;;;;;;;5012974;28;20022;-69
2021/06/12 01:46:36;;;;;;;24.13;11.63;;;;;;;;;;4990946;28;20550;-68
2021/06/12 01:49:03;;;;;;;21.05;11.45;;;;;;;;;;4990569;28;20060;-68
2021/06/12 01:51:29;;;;;;;20.17;11.07;;;;;;;;;;5000078;28;20079;-68
2021/06/12 01:53:56;;;;;;;22.02;11.52;;;;;;;;;;4990152;28;20039;-67
2021/06/12 01:56:24;;;;;;;27.38;12.73;;;;;;;;;;4988845;28;20030;-69
2021/06/12 01:58:50;;;;;;;24.48;13.23;;;;;;;;;;4990027;28;20121;-69
2021/06/12 02:01:17;;;;;;;24.25;13.27;;;;;;;;;;4993816;28;20087;-69
2021/06/12 02:03:45;;;;;;;26.00;13.00;;;;;;;;;;4986499;28;20083;-69
2021/06/12 02:06:12;;;;;;;24.20;12.95;;;;;;;;;;5001648;28;20485;-69
2021/06/12 02:08:39;;;;;;;24.05;13.15;;;;;;;;;;4996391;28;20028;-68
2021/06/12 02:11:06;;;;;;;24.83;12.70;;;;;;;;;;4990035;28;20030;-69
2021/06/12 02:13:32;;;;;;;23.50;12.20;;;;;;;;;;4995777;28;20022;-68
2021/06/12 02:15:58;;;;;;;24.98;13.15;;;;;;;;;;5000367;28;20512;-68
2021/06/12 02:18:26;;;;;;;29.48;13.52;;;;;;;;;;4995208;28;20489;-69
2021/06/12 02:20:53;;;;;;;23.45;13.05;;;;;;;;;;4999766;28;20080;-69
2021/06/12 02:23:20;;;;;;;29.60;13.82;;;;;;;;;;4992175;28;20044;-68
2021/06/12 02:25:47;;;;;;;29.05;13.05;;;;;;;;;;4991855;28;20019;-69
2021/06/12 02:28:14;;;;;;;23.50;12.50;;;;;;;;;;4989538;28;20112;-69
2021/06/12 02:30:45;;;;;;;28.25;13.85;;;;;;;;;;4989955;28;20124;-69
2021/06/12 02:33:14;;;;;;;25.50;11.75;;;;;;;;;;4989040;28;20054;-68
2021/06/12 02:35:40;;;;;;;23.70;11.68;;;;;;;;;;4997851;28;20165;-69
2021/06/12 02:38:06;;;;;;;32.22;11.32;;;;;;;;;;4987395;28;20027;-68
2021/06/12 02:40:32;;;;;;;23.42;10.75;;;;;;;;;;5003894;28;20095;-68
2021/06/12 02:42:59;;;;;;;24.25;12.77;;;;;;;;;;4991692;28;20027;-69
2021/06/12 02:45:25;;;;;;;25.52;11.05;;;;;;;;;;4990374;28;20022;-68
2021/06/12 02:47:53;;;;;;;25.95;11.20;;;;;;;;;;4995299;28;20014;-68
2021/06/12 02:50:21;;;;;;;28.73;12.52;;;;;;;;;;4996328;28;20049;-69
2021/06/12 02:52:47;;;;;;;24.88;12.05;;;;;;;;;;4988611;28;20023;-69
2021/06/12 02:55:14;;;;;;;30.45;12.35;;;;;;;;;;4984589;28;20026;-69
2021/06/12 02:57:42;;;;;;;22.73;11.27;;;;;;;;;;4989631;28;20504;-69
2021/06/12 03:00:09;;;;;;;31.27;11.05;;;;;;;;;;4991096;28;20394;-69
2021/06/12 03:02:39;;;;;;;21.60;11.32;;;;;;;;;;4992631;28;20050;-68
2021/06/12 03:05:07;;;;;;;28.70;12.50;;;;;;;;;;4987986;28;20484;-68
2021/06/12 03:07:34;;;;;;;26.50;12.93;;;;;;;;;;4992043;28;20018;-68
2021/06/12 03:10:01;;;;;;;27.65;13.05;;;;;;;;;;4994728;28;20034;-68
2021/06/12 03:12:28;;;;;;;31.98;12.30;;;;;;;;;;5001331;28;20111;-68
2021/06/12 03:14:56;;;;;;;24.23;11.40;;;;;;;;;;4990722;28;20413;-70
2021/06/12 03:17:23;;;;;;;25.27;12.63;;;;;;;;;;4989543;28;20554;-68
2021/06/12 03:19:50;;;;;;;28.40;13.45;;;;;;;;;;4999713;28;20034;-67
2021/06/12 03:22:16;;;;;;;24.25;12.98;;;;;;;;;;4992340;28;20022;-68
2021/06/12 03:24:42;;;;;;;26.20;11.80;;;;;;;;;;4988941;28;20026;-67
2021/06/12 03:27:08;;;;;;;28.95;12.80;;;;;;;;;;4998960;28;20516;-70
2021/06/12 03:29:35;;;;;;;27.42;12.45;;;;;;;;;;4997598;28;20030;-69
2021/06/12 03:32:01;;;;;;;22.83;10.38;;;;;;;;;;4984218;28;20027;-70
2021/06/12 03:34:27;;;;;;;26.58;12.45;;;;;;;;;;5001739;28;20033;-69
2021/06/12 03:36:53;;;;;;;36.15;12.95;;;;;;;;;;5001723;28;20060;-68
2021/06/12 03:39:19;;;;;;;28.05;11.40;;;;;;;;;;5004979;28;20026;-69
2021/06/12 03:41:46;;;;;;;27.38;12.40;;;;;;;;;;4991441;28;20035;-67
2021/06/12 03:44:13;;;;;;;29.40;12.02;;;;;;;;;;4992328;28;20119;-68
2021/06/12 03:46:40;;;;;;;24.88;12.30;;;;;;;;;;5006400;28;20069;-68
2021/06/12 03:49:07;;;;;;;26.95;11.38;;;;;;;;;;4999787;28;20022;-68
2021/06/12 03:51:33;;;;;;;24.77;11.63;;;;;;;;;;4988955;28;20152;-69
2021/06/12 03:53:59;;;;;;;24.88;11.73;;;;;;;;;;4992591;28;20034;-68
2021/06/12 03:56:30;;;;;;;26.95;11.07;;;;;;;;;;4989946;28;20378;-69
2021/06/12 03:58:56;;;;;;;26.48;11.82;;;;;;;;;;4996734;28;20026;-68
2021/06/12 04:01:22;;;;;;;27.92;11.80;;;;;;;;;;4990241;28;20062;-69
2021/06/12 04:03:48;;;;;;;20.92;10.27;;;;;;;;;;4993552;28;20037;-68
2021/06/12 04:06:14;;;;;;;30.17;11.82;;;;;;;;;;4996024;28;20045;-69
2021/06/12 04:08:40;;;;;;;29.65;12.25;;;;;;;;;;4995844;28;20037;-69
2021/06/12 04:11:07;;;;;;;24.60;10.68;;;;;;;;;;4993215;28;20488;-68
2021/06/12 04:13:33;;;;;;;24.38;10.82;;;;;;;;;;4992887;28;20106;-68
2021/06/12 04:15:59;;;;;;;29.48;11.57;;;;;;;;;;4992573;28;20061;-68
2021/06/12 04:18:25;;;;;;;22.23;11.90;;;;;;;;;;5007152;28;20021;-68
2021/06/12 04:20:51;;;;;;;26.67;11.18;;;;;;;;;;4995109;28;20114;-68
2021/06/12 04:23:18;;;;;;;28.38;11.43;;;;;;;;;;5000336;28;20821;-69
2021/06/12 04:25:44;;;;;;;22.20;11.90;;;;;;;;;;4993567;28;20046;-68
2021/06/12 04:28:10;;;;;;;21.27;10.82;;;;;;;;;;5000620;28;20029;-69
2021/06/12 04:30:36;;;;;;;25.52;10.93;;;;;;;;;;4989748;28;20034;-68
2021/06/12 04:33:04;;;;;;;20.58;10.40;;;;;;;;;;4992899;28;21102;-68
2021/06/12 04:35:31;;;;;;;21.40;10.45;;;;;;;;;;4986884;28;20034;-68
2021/06/12 04:37:59;;;;;;;24.95;10.90;;;;;;;;;;5005706;28;20051;-68
2021/06/12 04:40:26;;;;;;;21.17;10.52;;;;;;;;;;4995326;28;20056;-68
2021/06/12 04:42:52;;;;;;;20.67;11.88;;;;;;;;;;4990772;28;20033;-67
2021/06/12 04:45:18;;;;;;;19.40;10.38;;;;;;;;;;4990787;28;20076;-68
2021/06/12 04:47:44;;;;;;;22.63;9.98;;;;;;;;;;4997519;28;20023;-68
2021/06/12 04:50:10;;;;;;;20.25;10.55;;;;;;;;;;4993919;28;20022;-68
2021/06/12 04:52:37;;;;;;;26.17;11.15;;;;;;;;;;4987886;28;20037;-68
2021/06/12 04:55:04;;;;;;;21.83;9.50;;;;;;;;;;4987271;28;20135;-67
2021/06/12 04:57:30;;;;;;;21.25;10.02;;;;;;;;;;4990459;28;20489;-67
2021/06/12 04:59:56;;;;;;;19.83;11.13;;;;;;;;;;4986028;28;20497;-68
2021/06/12 05:02:22;;;;;;;21.75;10.02;;;;;;;;;;4988442;28;20065;-67
2021/06/12 05:04:48;;;;;;;18.08;9.45;;;;;;;;;;4990347;28;20031;-67
2021/06/12 05:07:14;;;;;;;21.70;10.10;;;;;;;;;;4989876;28;20026;-68
2021/06/12 05:09:40;;;;;;;20.67;9.80;;;;;;;;;;4978264;28;20030;-67
2021/06/12 05:12:06;;;;;;;21.92;9.82;;;;;;;;;;4976470;28;20037;-67
2021/06/12 05:14:32;;;;;;;19.40;9.25;;;;;;;;;;4981269;28;20029;-68
2021/06/12 05:17:01;;;;;;;27.40;9.43;;;;;;;;;;4978955;28;20069;-68
2021/06/12 05:19:28;;;;;;;23.17;10.63;;;;;;;;;;4986302;28;20022;-68
2021/06/12 05:21:54;;;;;;;20.55;9.45;;;;;;;;;;4980260;28;20034;-67
2021/06/12 05:24:20;;;;;;;20.40;10.27;;;;;;;;;;4983680;28;20027;-67
2021/06/12 05:26:46;;;;;;;18.05;8.65;;;;;;;;;;4989830;28;20031;-67
2021/06/12 05:29:12;;;;;;;24.00;9.68;;;;;;;;;;4980986;28;20110;-67
2021/06/12 05:31:38;;;;;;;25.27;9.30;;;;;;;;;;4982717;28;20034;-67
2021/06/12 05:34:04;;;;;;;23.73;9.63;;;;;;;;;;4977933;28;20022;-67
2021/06/12 05:36:31;;;;;;;20.60;9.73;;;;;;;;;;4989072;28;20027;-67
2021/06/12 05:38:57;;;;;;;23.35;9.95;;;;;;;;;;4990115;28;20037;-67
2021/06/12 05:41:23;;;;;;;18.40;8.73;;;;;;;;;;4982625;28;20023;-67
2021/06/12 05:43:49;;;;;;;14.25;7.55;;;;;;;;;;4988287;28;20038;-67
2021/06/12 05:46:16;;;;;;;16.50;8.60;;;;;;;;;;4991228;28;20027;-67
2021/06/12 05:48:42;;;;;;;17.63;8.88;;;;;;;;;;4991463;28;20026;-67
2021/06/12 05:51:08;;;;;;;20.23;9.35;;;;;;;;;;4995719;28;20027;-67
2021/06/12 05:53:34;;;;;;;18.13;8.00;;;;;;;;;;4997543;28;20026;-67
2021/06/12 05:56:00;;;;;;;17.83;9.27;;;;;;;;;;4988519;28;20034;-67
2021/06/12 05:58:26;;;;;;;17.50;7.85;;;;;;;;;;4999586;28;20051;-67
2021/06/12 06:00:52;;;;;;;14.35;7.43;;;;;;;;;;4993283;28;20046;-67
2021/06/12 06:03:18;;;;;;;16.80;8.30;;;;;;;;;;4993047;28;20115;-67
2021/06/12 06:05:44;;;;;;;16.92;8.18;;;;;;;;;;4989669;28;20025;-66
2021/06/12 06:08:10;;;;;;;15.25;8.25;;;;;;;;;;4991329;28;20068;-66
2021/06/12 06:10:36;;;;;;;17.52;7.97;;;;;;;;;;5006833;28;20136;-67
2021/06/12 06:13:03;;;;;;;15.50;7.80;;;;;;;;;;4986547;28;20023;-66
2021/06/12 06:15:29;;;;;;;27.27;8.73;;;;;;;;;;4989400;28;20175;-66
2021/06/12 06:17:55;;;;;;;16.25;7.60;;;;;;;;;;4992107;28;20390;-67
2021/06/12 06:20:22;;;;;;;16.58;7.80;;;;;;;;;;4990985;28;20022;-67
2021/06/12 06:22:48;;;;;;;15.38;8.05;;;;;;;;;;4987057;28;20113;-67
2021/06/12 06:25:14;;;;;;;15.30;7.75;;;;;;;;;;4995824;28;20023;-67
2021/06/12 06:27:41;;;;;;;13.98;7.80;;;;;;;;;;4990408;28;20026;-66
2021/06/12 06:30:07;;;;;;;18.58;7.47;;;;;;;;;;4989218;28;20034;-67
2021/06/12 06:32:34;;;;;;;15.57;8.55;;;;;;;;;;4991276;28;20156;-67
2021/06/12 06:35:00;;;;;;;16.95;7.78;;;;;;;;;;4985889;28;20022;-67
2021/06/12 06:37:26;;;;;;;15.20;7.50;;;;;;;;;;4992000;28;20015;-66
2021/06/12 06:39:53;;;;;;;18.65;8.70;;;;;;;;;;4990178;28;20034;-67
2021/06/12 06:42:19;;;;;;;15.93;8.18;;;;;;;;;;4989069;28;20026;-67
2021/06/12 06:44:45;;;;;;;14.57;7.80;;;;;;;;;;4985344;28;20026;-67
2021/06/12 06:47:11;;;;;;;18.27;7.57;;;;;;;;;;4992459;28;20029;-67
2021/06/12 06:49:39;;;;;;;17.63;9.70;;;;;;;;;;5024365;28;20032;-66
2021/06/12 06:52:05;;;;;;;13.85;7.68;;;;;;;;;;5000362;28;20085;-67
2021/06/12 06:54:32;;;;;;;21.15;7.85;;;;;;;;;;4983049;28;20075;-67
2021/06/12 06:56:58;;;;;;;13.77;7.43;;;;;;;;;;4979217;28;20030;-67
2021/06/12 06:59:24;;;;;;;19.63;8.00;;;;;;;;;;4976009;28;20064;-67
2021/06/12 07:01:51;;;;;;;17.80;8.00;;;;;;;;;;4988882;28;20042;-67
2021/06/12 07:04:17;;;;;;;14.90;7.63;;;;;;;;;;4983270;28;20023;-67
2021/06/12 07:06:43;;;;;;;13.38;8.10;;;;;;;;;;4970861;28;20038;-66
2021/06/12 07:09:09;;;;;;;17.90;7.38;;;;;;;;;;4985774;28;20076;-67
2021/06/12 07:11:35;;;;;;;17.25;6.72;;;;;;;;;;4999988;28;20049;-66
2021/06/12 07:14:01;;;;;;;15.98;7.53;;;;;;;;;;4984182;28;20034;-66
2021/06/12 07:16:27;;;;;;;13.88;6.78;;;;;;;;;;4988557;28;20072;-66
2021/06/12 07:18:54;;;;;;;15.02;6.65;;;;;;;;;;4987250;28;20034;-66
2021/06/12 07:21:20;;;;;;;16.40;6.07;;;;;;;;;;4987110;28;20059;-67
2021/06/12 07:23:47;;;;;;;19.02;6.15;;;;;;;;;;4982775;28;20031;-67
2021/06/12 07:26:13;;;;;;;16.20;7.18;;;;;;;;;;4985003;28;20291;-67
2021/06/12 07:28:39;;;;;;;14.32;6.65;;;;;;;;;;4990759;28;20482;-66
2021/06/12 07:31:05;;;;;;;11.93;5.82;;;;;;;;;;4988887;28;20041;-66
2021/06/12 07:33:31;;;;;;;16.52;6.53;;;;;;;;;;4985155;28;20031;-67
2021/06/12 07:35:57;;;;;;;13.25;7.38;;;;;;;;;;4986780;28;20086;-66
2021/06/12 07:38:24;;;;;;;12.18;7.05;;;;;;;;;;5000370;28;20107;-68
2021/06/12 07:40:50;;;;;;;12.35;7.05;;;;;;;;;;5006965;28;20638;-68
2021/06/12 07:43:20;;;;;;;12.60;6.68;;;;;;;;;;4987721;28;20105;-67
2021/06/12 07:45:47;;;;;;;13.70;6.50;;;;;;;;;;4988371;28;20030;-67
2021/06/12 07:48:13;;;;;;;12.70;6.93;;;;;;;;;;4987142;28;20062;-67
2021/06/12 07:50:39;;;;;;;13.85;7.30;;;;;;;;;;4989456;28;20716;-67
2021/06/12 07:53:06;;;;;;;16.02;6.80;;;;;;;;;;4999506;28;20026;-66
2021/06/12 07:55:33;;;;;;;15.07;6.68;;;;;;;;;;4992210;28;20026;-67
2021/06/12 07:57:59;;;;;;;13.07;6.30;;;;;;;;;;4994143;28;20038;-67
2021/06/12 08:00:25;;;;;;;12.65;6.32;;;;;;;;;;4991338;28;20033;-67
2021/06/12 08:02:51;;;;;;;13.88;6.30;;;;;;;;;;4990582;28;20043;-67
2021/06/12 08:05:17;;;;;;;11.90;6.07;;;;;;;;;;4989188;28;20397;-67
2021/06/12 08:07:43;;;;;;;11.43;5.90;;;;;;;;;;4991812;28;20030;-66
2021/06/12 08:10:10;;;;;;;16.52;6.82;;;;;;;;;;4991349;28;20049;-66
2021/06/12 08:12:36;;;;;;;14.63;5.93;;;;;;;;;;4991049;28;20577;-67
2021/06/12 08:15:04;;;;;;;11.18;5.43;;;;;;;;;;4992613;28;20031;-67
2021/06/12 08:17:30;;;;;;;10.25;5.40;;;;;;;;;;4990990;28;20041;-67
2021/06/12 08:19:56;;;;;;;14.20;5.15;;;;;;;;;;4986579;28;20072;-66
2021/06/12 08:22:23;;;;;;;9.85;4.65;;;;;;;;;;4992763;28;20508;-66
2021/06/12 08:24:49;;;;;;;9.40;4.00;;;;;;;;;;4996221;28;20215;-66
2021/06/12 08:27:16;;;;;;;10.25;4.38;;;;;;;;;;4990813;28;20080;-66
2021/06/12 08:29:43;;;;;;;11.40;4.32;;;;;;;;;;4991055;28;20077;-66
2021/06/12 08:32:09;;;;;;;11.25;4.03;;;;;;;;;;4989721;28;20038;-66
2021/06/12 08:34:36;;;;;;;11.45;3.92;;;;;;;;;;4990356;28;20030;-66
2021/06/12 08:37:03;;;;;;;11.90;3.97;;;;;;;;;;4987986;28;20113;-66
2021/06/12 08:39:30;;;;;;;11.15;3.97;;;;;;;;;;4989580;28;20042;-66
2021/06/12 08:41:56;;;;;;;12.07;4.47;;;;;;;;;;4989984;28;20079;-66
2021/06/12 08:44:23;;;;;;;10.90;4.47;;;;;;;;;;4987321;28;20554;-66
2021/06/12 08:46:49;;;;;;;14.40;5.53;;;;;;;;;;4991377;28;20445;-66
2021/06/12 08:49:16;;;;;;;14.48;5.22;;;;;;;;;;4988938;28;20020;-66
2021/06/12 08:51:42;;;;;;;11.68;4.88;;;;;;;;;;4990636;28;20034;-67
2021/06/12 08:54:09;;;;;;;12.18;4.80;;;;;;;;;;4986516;28;20477;-66
2021/06/12 08:56:35;;;;;;;12.70;4.88;;;;;;;;;;4989827;28;20603;-67
2021/06/12 08:59:01;;;;;;;12.38;5.00;;;;;;;;;;4989818;28;20513;-66
2021/06/12 09:01:27;;;;;;;15.27;5.78;;;;;;;;;;4998922;28;20473;-66
2021/06/12 09:03:53;;;;;;;13.70;5.30;;;;;;;;;;4986543;28;20137;-66
2021/06/12 09:06:21;;;;;;;11.73;4.78;;;;;;;;;;4989552;28;20477;-67
2021/06/12 09:08:48;;;;;;;15.25;4.70;;;;;;;;;;4988807;28;20076;-66
2021/06/12 09:11:15;;;;;;;12.27;4.78;;;;;;;;;;4990116;28;20023;-66
2021/06/12 09:13:43;;;;;;;11.05;4.72;;;;;;;;;;4987528;28;20023;-67
2021/06/12 09:16:28;;;;;;;11.32;4.65;;;;;;;;;;4988778;28;20038;-67
2021/06/12 09:18:55;;;;;;;13.88;4.68;;;;;;;;;;4989508;28;20042;-66
2021/06/12 09:21:24;;;;;;;13.23;4.68;;;;;;;;;;4989689;28;20060;-67
2021/06/12 09:23:52;;;;;;;11.35;4.80;;;;;;;;;;4986883;28;20038;-66
2021/06/12 09:26:19;;;;;;;14.98;5.57;;;;;;;;;;4990299;28;20037;-67
2021/06/12 09:29:04;;;;;;;10.82;4.63;;;;;;;;;;4988741;28;20034;-67
2021/06/12 09:31:30;;;;;;;11.57;5.15;;;;;;;;;;4989971;28;20026;-67
2021/06/12 09:33:56;;;;;;;12.27;4.90;;;;;;;;;;4985604;28;20026;-66
2021/06/12 09:36:35;;;;;;;10.77;4.70;;;;;;;;;;4988892;28;20019;-66
2021/06/12 09:39:24;;;;;;;16.15;5.40;;;;;;;;;;4984850;28;20027;-66
2021/06/12 09:41:52;;;;;;;12.73;5.35;;;;;;;;;;4982842;28;20463;-67
2021/06/12 09:44:42;;;;;;;16.50;5.18;;;;;;;;;;4981566;28;20038;-67
2021/06/12 09:47:11;;;;;;;13.25;4.75;;;;;;;;;;4982197;28;20058;-67
2021/06/12 09:49:39;;;;;;;13.65;5.05;;;;;;;;;;4989306;28;20034;-67
2021/06/12 09:52:12;;;;;;;14.93;5.30;;;;;;;;;;4982555;28;20034;-67
2021/06/12 09:54:43;;;;;;;13.45;5.75;;;;;;;;;;4989257;28;20038;-66
2021/06/12 09:57:11;;;;;;;18.63;6.30;;;;;;;;;;4979158;28;20489;-67
2021/06/12 09:59:40;;;;;;;13.48;5.55;;;;;;;;;;4989147;28;20040;-67
2021/06/12 10:02:06;;;;;;;13.38;5.55;;;;;;;;;;4990983;28;20597;-67
2021/06/12 10:04:32;;;;;;;13.38;6.38;;;;;;;;;;4988894;28;20026;-66
2021/06/12 10:06:59;;;;;;;22.15;6.15;;;;;;;;;;4989521;28;20060;-67
2021/06/12 10:09:25;;;;;;;18.00;6.88;;;;;;;;;;4989294;28;20022;-66
2021/06/12 10:11:51;;;;;;;16.65;5.75;;;;;;;;;;4987409;28;20029;-66
2021/06/12 10:14:19;;;;;;;14.57;6.50;;;;;;;;;;4982702;28;20010;-66
2021/06/12 10:16:45;;;;;;;14.77;6.10;;;;;;;;;;4989383;28;20027;-67
2021/06/12 10:19:16;;;;;;;12.20;6.25;;;;;;;;;;4987315;28;20045;-67
2021/06/12 10:21:42;;;;;;;12.82;6.20;;;;;;;;;;4973473;28;20079;-67
2021/06/12 10:24:09;;;;;;;13.63;6.03;;;;;;;;;;4986670;28;20148;-66
2021/06/12 10:26:35;;;;;;;12.30;6.07;;;;;;;;;;4989324;28;20072;-66
2021/06/12 10:29:02;;;;;;;15.13;6.72;;;;;;;;;;4987723;28;20026;-66
2021/06/12 10:31:34;;;;;;;11.38;5.57;;;;;;;;;;4989057;28;20031;-65
2021/06/12 10:34:00;;;;;;;10.88;5.63;;;;;;;;;;4987780;28;20030;-66
2021/06/12 10:36:28;;;;;;;14.68;6.95;;;;;;;;;;4988790;28;20018;-65
2021/06/12 10:38:56;;;;;;;12.52;6.47;;;;;;;;;;4989041;28;20030;-65
2021/06/12 10:41:23;;;;;;;22.20;7.75;;;;;;;;;;4988635;28;20033;-67
2021/06/12 10:43:50;;;;;;;19.10;6.85;;;;;;;;;;4985756;28;20123;-66
2021/06/12 10:46:19;;;;;;;10.85;5.68;;;;;;;;;;4988502;28;20023;-66
2021/06/12 10:48:52;;;;;;;14.23;6.80;;;;;;;;;;4988656;28;20034;-66
2021/06/12 10:51:28;;;;;;;17.70;7.25;;;;;;;;;;4988605;28;20025;-66
2021/06/12 10:54:09;;;;;;;15.45;5.78;;;;;;;;;;4985226;28;20023;-65
2021/06/12 10:56:37;;;;;;;13.77;5.57;;;;;;;;;;4988442;28;20496;-66
2021/06/12 10:59:03;;;;;;;15.70;6.60;;;;;;;;;;4988652;28;20117;-65
2021/06/12 11:01:30;;;;;;;16.95;6.00;;;;;;;;;;4987672;28;20076;-66
2021/06/12 11:04:16;;;;;;;13.13;6.28;;;;;;;;;;4985714;28;20117;-66
2021/06/12 11:09:13;;;;;;;13.93;7.20;;;;;;;;;;4988889;28;20445;-66
2021/06/12 11:11:39;;;;;;;15.18;6.15;;;;;;;;;;4988952;28;20037;-66
2021/06/12 11:14:23;;;;;;;14.82;7.78;;;;;;;;;;4985006;28;20041;-65
2021/06/12 11:17:11;;;;;;;14.32;6.40;;;;;;;;;;4989445;28;20037;-65
2021/06/12 11:19:44;;;;;;;15.27;6.47;;;;;;;;;;4983354;28;20037;-65
2021/06/12 11:22:29;;;;;;;12.00;6.22;;;;;;;;;;4986224;28;20229;-65
2021/06/12 11:25:10;;;;;;;17.25;6.43;;;;;;;;;;4985319;28;20259;-65
2021/06/12 11:27:36;;;;;;;17.50;6.57;;;;;;;;;;4986667;28;20096;-65
2021/06/12 11:30:12;;;;;;;18.02;6.03;;;;;;;;;;4987180;28;21091;-65
2021/06/12 11:32:42;;;;;;;16.38;6.18;;;;;;;;;;4985312;28;20062;-65
2021/06/12 11:35:08;;;;;;;25.38;6.68;;;;;;;;;;4988225;28;20045;-65
2021/06/12 11:37:34;;;;;;;18.25;6.00;;;;;;;;;;4988135;28;20397;-65
2021/06/12 11:40:02;;;;;;;14.50;7.22;;;;;;;;;;4987560;28;20027;-65
2021/06/12 11:42:48;;;;;;;17.38;6.00;;;;;;;;;;4980592;28;20027;-66
2021/06/12 11:45:19;;;;;;;16.65;6.05;;;;;;;;;;4987163;28;20437;-65
2021/06/12 11:47:46;;;;;;;145.82;25.90;;;;;;;;;;4986916;28;20030;-66
2021/06/12 11:50:12;;;;;;;120.68;20.45;;;;;;;;;;4985625;28;20402;-66
2021/06/12 11:52:39;;;;;;;338.98;50.22;;;;;;;;;;4985130;28;20083;-66
2021/06/12 11:55:11;;;;;;;21.90;7.25;;;;;;;;;;4987558;28;20027;-65
2021/06/12 11:57:45;;;;;;;19.35;7.03;;;;;;;;;;4987541;28;20037;-65
2021/06/12 12:00:23;;;;;;;19.13;6.22;;;;;;;;;;4991974;28;20079;-65
2021/06/12 12:02:59;;;;;;;84.90;17.98;;;;;;;;;;4984743;28;20427;-65
2021/06/12 12:05:30;;;;;;;16.15;6.88;;;;;;;;;;4987428;28;20018;-65
2021/06/12 12:07:56;;;;;;;25.35;6.50;;;;;;;;;;4986273;28;20485;-64
2021/06/12 12:10:26;;;;;;;18.33;6.45;;;;;;;;;;4987371;28;20022;-65
2021/06/12 12:12:53;;;;;;;24.42;7.45;;;;;;;;;;4981617;28;20102;-65
2021/06/12 12:15:37;;;;;;;17.75;7.00;;;;;;;;;;4987443;28;20015;-65
2021/06/12 12:18:11;;;;;;;18.77;6.00;;;;;;;;;;4985814;28;20097;-64
2021/06/12 12:20:39;;;;;;;19.38;6.43;;;;;;;;;;4985129;28;20042;-64
2021/06/12 12:23:18;;;;;;;17.08;6.00;;;;;;;;;;4984088;28;20026;-65
2021/06/12 12:25:44;;;;;;;83.47;13.80;;;;;;;;;;5003125;28;20050;-64
2021/06/12 12:28:12;;;;;;;17.60;5.88;;;;;;;;;;4987048;28;20037;-64
2021/06/12 12:30:38;;;;;;;18.60;6.57;;;;;;;;;;4987366;28;20039;-64
2021/06/12 12:33:11;;;;;;;16.63;5.60;;;;;;;;;;4984112;28;20030;-64
2021/06/12 12:35:37;;;;;;;19.95;6.47;;;;;;;;;;4986171;28;20568;-64
2021/06/12 12:38:14;;;;;;;17.38;6.07;;;;;;;;;;4989653;28;20104;-65
2021/06/12 12:40:40;;;;;;;20.33;6.80;;;;;;;;;;4990955;28;20057;-64
2021/06/12 12:43:07;;;;;;;20.67;7.95;;;;;;;;;;4986433;28;20033;-65
2021/06/12 12:45:34;;;;;;;18.90;6.05;;;;;;;;;;4990830;28;20058;-65
2021/06/12 12:48:00;;;;;;;20.33;6.90;;;;;;;;;;4990623;28;20473;-63
2021/06/12 12:50:26;;;;;;;19.85;7.22;;;;;;;;;;4990664;28;20023;-64
2021/06/12 12:53:22;;;;;;;17.92;6.10;;;;;;;;;;4987837;28;20027;-64
2021/06/12 12:56:00;;;;;;;13.00;6.30;;;;;;;;;;4976416;28;20046;-65
2021/06/12 12:58:27;;;;;;;19.23;6.95;;;;;;;;;;4989485;28;20026;-65
2021/06/12 13:01:03;;;;;;;19.45;8.10;;;;;;;;;;5029826;28;20084;-64
2021/06/12 13:03:40;;;;;;;17.92;7.72;;;;;;;;;;4987379;28;20042;-65
2021/06/12 13:06:26;;;;;;;18.70;7.03;;;;;;;;;;4988713;28;20080;-65
2021/06/12 13:09:05;;;;;;;15.55;7.50;;;;;;;;;;4983178;28;20022;-66
2021/06/12 13:11:40;;;;;;;19.63;6.97;;;;;;;;;;4990217;28;20066;-64
2021/06/12 13:14:06;;;;;;;19.83;7.95;;;;;;;;;;4989608;28;20022;-64
2021/06/12 13:16:32;;;;;;;19.95;6.00;;;;;;;;;;4990276;28;20031;-64
2021/06/12 13:19:12;;;;;;;21.50;7.53;;;;;;;;;;4985862;28;20034;-65
2021/06/12 13:21:47;;;;;;;21.67;6.72;;;;;;;;;;4983431;28;20022;-64
2021/06/12 13:24:13;;;;;;;20.25;6.50;;;;;;;;;;4996073;28;20054;-64
2021/06/12 13:26:40;;;;;;;18.98;7.03;;;;;;;;;;5006929;28;20119;-65
2021/06/12 13:29:16;;;;;;;13.93;6.60;;;;;;;;;;4992903;28;20026;-66
2021/06/12 13:31:43;;;;;;;13.85;6.15;;;;;;;;;;5003936;28;20086;-65
2021/06/12 13:34:29;;;;;;;23.08;7.78;;;;;;;;;;5001043;28;20122;-64
2021/06/12 13:36:56;;;;;;;17.77;6.38;;;;;;;;;;4994268;28;20151;-65
2021/06/12 13:39:38;;;;;;;16.52;6.20;;;;;;;;;;4999734;28;20497;-65
2021/06/12 13:42:07;;;;;;;18.33;6.32;;;;;;;;;;4979798;28;20579;-66
2021/06/12 13:44:33;;;;;;;19.65;6.95;;;;;;;;;;4992267;28;20037;-65
2021/06/12 13:47:00;;;;;;;19.60;7.60;;;;;;;;;;4996333;28;20029;-65
2021/06/12 13:49:26;;;;;;;13.98;5.95;;;;;;;;;;4991311;28;20107;-65
2021/06/12 13:51:52;;;;;;;18.85;7.40;;;;;;;;;;4988306;28;20038;-65
2021/06/12 13:54:18;;;;;;;16.73;7.22;;;;;;;;;;4981930;28;20045;-65
2021/06/12 13:56:44;;;;;;;22.98;6.70;;;;;;;;;;4978623;28;20132;-64
2021/06/12 13:59:11;;;;;;;14.77;6.75;;;;;;;;;;4982250;28;20042;-64
2021/06/12 14:01:37;;;;;;;18.73;7.72;;;;;;;;;;4985556;28;20133;-65
2021/06/12 14:04:04;;;;;;;19.63;7.70;;;;;;;;;;4969725;28;20042;-65
2021/06/12 14:06:33;;;;;;;18.15;6.15;;;;;;;;;;4981233;28;20072;-65
2021/06/12 14:08:59;;;;;;;14.35;6.95;;;;;;;;;;4996337;28;20027;-66
2021/06/12 14:11:25;;;;;;;17.63;6.70;;;;;;;;;;4988681;28;20429;-65
2021/06/12 14:13:52;;;;;;;18.38;7.18;;;;;;;;;;4983660;28;20022;-65
2021/06/12 14:16:18;;;;;;;18.05;7.70;;;;;;;;;;4979407;28;20103;-66
2021/06/12 14:18:44;;;;;;;24.13;8.85;;;;;;;;;;4982660;28;20493;-65
2021/06/12 14:21:10;;;;;;;19.27;6.45;;;;;;;;;;4996148;28;20093;-66
2021/06/12 14:23:36;;;;;;;17.05;6.72;;;;;;;;;;4998779;28;20022;-64
2021/06/12 14:26:04;;;;;;;17.33;6.57;;;;;;;;;;4987419;28;20680;-65
2021/06/12 14:28:30;;;;;;;17.33;6.32;;;;;;;;;;4991279;28;20110;-65
2021/06/12 14:31:01;;;;;;;15.65;6.28;;;;;;;;;;4994286;28;20481;-65
2021/06/12 14:33:28;;;;;;;13.32;6.07;;;;;;;;;;4988073;28;20053;-66